createdAt,value
2022-12-14T00:01:34.411Z,-3.30
2022-12-14T00:04:01.139Z,-3.30
2022-12-14T00:06:33.505Z,-3.30
2022-12-14T00:09:03.006Z,-3.20
2022-12-14T00:11:30.024Z,-3.20
2022-12-14T00:13:59.666Z,-3.30
2022-12-14T00:16:29.701Z,-3.30
2022-12-14T00:18:58.668Z,-3.30
2022-12-14T00:21:26.780Z,-3.30
2022-12-14T00:23:54.337Z,-3.30
2022-12-14T00:26:23.117Z,-3.30
2022-12-14T00:28:52.169Z,-3.10
2022-12-14T00:31:19.619Z,-3.30
2022-12-14T00:33:47.063Z,-3.30
2022-12-14T00:36:14.781Z,-3.40
2022-12-14T00:38:41.981Z,-3.40
2022-12-14T00:41:10.048Z,-3.40
2022-12-14T00:43:36.845Z,-3.40
2022-12-14T00:46:03.683Z,-3.40
2022-12-14T00:48:32.702Z,-3.40
2022-12-14T00:50:59.850Z,-3.40
2022-12-14T00:53:26.571Z,-3.40
2022-12-14T00:55:53.472Z,-3.40
2022-12-14T00:58:22.664Z,-3.40
2022-12-14T01:01:00.165Z,-3.40
2022-12-14T01:03:27.412Z,-3.40
2022-12-14T01:05:54.449Z,-3.30
2022-12-14T01:08:21.319Z,-3.40
2022-12-14T01:10:48.017Z,-3.40
2022-12-14T01:13:14.698Z,-3.30
2022-12-14T01:15:41.808Z,-3.30
2022-12-14T01:18:08.664Z,-3.30
2022-12-14T01:20:35.339Z,-3.30
2022-12-14T01:23:01.949Z,-3.30
2022-12-14T01:25:28.673Z,-3.30
2022-12-14T01:27:55.282Z,-3.30
2022-12-14T01:30:22.269Z,-3.30
2022-12-14T01:32:48.891Z,-3.30
2022-12-14T01:35:15.695Z,-3.40
2022-12-14T01:37:42.390Z,-3.30
2022-12-14T01:40:09.511Z,-3.30
2022-12-14T01:42:37.167Z,-3.40
2022-12-14T01:45:05.362Z,-3.30
2022-12-14T01:47:42.213Z,-3.40
2022-12-14T01:50:15.966Z,-3.30
2022-12-14T01:52:49.442Z,-3.30
2022-12-14T01:55:27.618Z,-3.30
2022-12-14T01:57:55.817Z,-3.40
2022-12-14T02:00:23.229Z,-3.30
2022-12-14T02:02:57.226Z,-3.30
2022-12-14T02:05:25.719Z,-3.30
2022-12-14T02:07:55.075Z,-3.30
2022-12-14T02:10:24.857Z,-3.30
2022-12-14T02:12:58.249Z,-3.20
2022-12-14T02:15:25.171Z,-3.30
2022-12-14T02:17:52.145Z,-3.30
2022-12-14T02:20:20.991Z,-3.30
2022-12-14T02:22:56.451Z,-3.30
2022-12-14T02:25:29.106Z,-3.30
2022-12-14T02:28:36.316Z,-3.30
2022-12-14T02:31:37.042Z,-3.30
2022-12-14T02:34:25.777Z,-3.30
2022-12-14T02:36:59.519Z,-3.40
2022-12-14T02:39:38.346Z,-3.30
2022-12-14T02:42:15.213Z,-3.30
2022-12-14T02:44:49.981Z,-3.30
2022-12-14T02:48:11.990Z,-3.30
2022-12-14T02:50:45.305Z,-3.30
2022-12-14T02:53:34.850Z,-3.20
2022-12-14T02:56:06.959Z,-3.20
2022-12-14T02:58:38.308Z,-3.20
2022-12-14T03:01:07.962Z,-3.20
2022-12-14T03:03:34.643Z,-3.20
2022-12-14T03:06:03.878Z,-3.20
2022-12-14T03:08:34.758Z,-3.20
2022-12-14T03:11:06.944Z,-3.20
2022-12-14T03:13:49.119Z,-3.20
2022-12-14T03:16:22.228Z,-3.20
2022-12-14T03:18:54.774Z,-3.20
2022-12-14T03:21:27.823Z,-3.20
2022-12-14T03:23:56.072Z,-3.20
2022-12-14T03:26:22.675Z,-3.20
2022-12-14T03:28:57.540Z,-3.20
2022-12-14T03:31:34.681Z,-3.20
2022-12-14T03:34:03.852Z,-3.20
2022-12-14T03:36:42.289Z,-3.20
2022-12-14T03:39:12.385Z,-3.20
2022-12-14T03:41:53.172Z,-3.10
2022-12-14T03:44:55.852Z,-3.10
2022-12-14T03:47:50.387Z,-3.10
2022-12-14T03:50:37.037Z,-3.10
2022-12-14T03:53:12.637Z,-3.10
2022-12-14T03:55:44.577Z,-3.10
2022-12-14T03:58:18.717Z,-3.10
2022-12-14T04:01:01.257Z,-3.10
2022-12-14T04:04:02.925Z,-3.10
2022-12-14T04:06:38.725Z,-3.10
2022-12-14T04:09:23.380Z,-3.10
2022-12-14T04:12:35.145Z,-3.10
2022-12-14T04:15:32.270Z,-3.10
2022-12-14T04:18:22.687Z,-3.10
2022-12-14T04:21:08.211Z,-3.10
2022-12-14T04:24:03.896Z,-3.10
2022-12-14T04:26:36.696Z,-3.10
2022-12-14T04:29:27.949Z,-3.10
2022-12-14T04:32:01.322Z,-3.10
2022-12-14T04:34:30.761Z,-3.10
2022-12-14T04:37:01.439Z,-3.10
2022-12-14T04:39:39.545Z,-3.10
2022-12-14T04:42:08.677Z,-3.10
2022-12-14T04:44:42.988Z,-3.10
2022-12-14T04:47:13.792Z,-3.10
2022-12-14T04:49:50.320Z,-3.00
2022-12-14T04:52:38.615Z,-3.10
2022-12-14T04:55:11.258Z,-3.00
2022-12-14T04:57:46.741Z,-3.00
2022-12-14T05:00:14.443Z,-3.00
2022-12-14T05:02:44.112Z,-3.00
2022-12-14T05:05:31.732Z,-3.00
2022-12-14T05:08:14.663Z,-3.00
2022-12-14T05:10:50.825Z,-3.00
2022-12-14T05:13:23.597Z,-3.00
2022-12-14T05:15:53.069Z,-3.00
2022-12-14T05:18:20.337Z,-3.00
2022-12-14T05:20:47.901Z,-2.90
2022-12-14T05:23:15.289Z,-2.90
2022-12-14T05:25:42.019Z,-3.00
2022-12-14T05:28:10.721Z,-2.90
2022-12-14T05:30:37.753Z,-3.00
2022-12-14T05:33:04.665Z,-2.90
2022-12-14T05:35:31.349Z,-2.90
2022-12-14T05:37:58.008Z,-3.00
2022-12-14T05:40:24.717Z,-2.90
2022-12-14T05:42:55.707Z,-2.90
2022-12-14T05:45:22.621Z,-2.90
2022-12-14T05:47:49.312Z,-2.90
2022-12-14T05:50:16.141Z,-2.90
2022-12-14T05:52:43.017Z,-2.90
2022-12-14T05:55:09.894Z,-2.90
2022-12-14T05:57:36.765Z,-2.90
2022-12-14T06:00:04.841Z,-2.80
2022-12-14T06:02:31.602Z,-2.80
2022-12-14T06:04:58.297Z,-2.80
2022-12-14T06:07:27.947Z,-2.80
2022-12-14T06:09:55.100Z,-2.80
2022-12-14T06:12:21.784Z,-2.80
2022-12-14T06:14:48.450Z,-2.80
2022-12-14T06:17:15.098Z,-2.80
2022-12-14T06:19:42.496Z,-2.80
2022-12-14T06:22:16.566Z,-2.80
2022-12-14T06:24:43.219Z,-2.80
2022-12-14T06:27:09.936Z,-2.80
2022-12-14T06:29:36.658Z,-2.80
2022-12-14T06:32:03.307Z,-2.80
2022-12-14T06:34:32.902Z,-2.80
2022-12-14T06:37:03.680Z,-2.80
2022-12-14T06:39:30.536Z,-2.80
2022-12-14T06:41:57.292Z,-2.80
2022-12-14T06:44:23.924Z,-2.70
2022-12-14T06:46:50.663Z,-2.70
2022-12-14T06:49:17.490Z,-2.70
2022-12-14T06:51:44.533Z,-2.70
2022-12-14T06:54:12.934Z,-2.70
2022-12-14T06:56:40.640Z,-2.70
2022-12-14T06:59:08.861Z,-2.70
2022-12-14T07:01:37.252Z,-2.70
2022-12-14T07:04:12.393Z,-2.70
2022-12-14T07:08:11.088Z,-2.70
2022-12-14T07:13:08.289Z,-2.70
2022-12-14T07:15:51.410Z,-2.60
2022-12-14T07:21:36.275Z,-2.70
2022-12-14T07:24:15.605Z,-2.60
2022-12-14T07:26:47.689Z,-2.60
2022-12-14T07:29:53.999Z,-2.70
2022-12-14T07:38:44.999Z,-2.60
2022-12-14T07:41:33.635Z,-2.60
2022-12-14T07:44:40.631Z,-2.60
2022-12-14T07:47:22.357Z,-2.50
2022-12-14T07:49:59.767Z,-2.60
2022-12-14T07:52:55.012Z,-2.50
2022-12-14T07:55:27.831Z,-2.50
2022-12-14T08:01:06.859Z,-2.50
2022-12-14T08:04:15.803Z,-2.50
2022-12-14T08:10:42.067Z,-2.50
2022-12-14T08:17:05.648Z,-2.50
2022-12-14T08:20:04.817Z,-2.40
2022-12-14T08:23:09.448Z,-2.40
2022-12-14T08:25:54.944Z,-2.50
2022-12-14T08:28:48.184Z,-2.40
2022-12-14T08:31:30.592Z,-2.40
2022-12-14T08:34:27.885Z,-2.40
2022-12-14T08:37:11.970Z,-2.40
2022-12-14T08:39:50.402Z,-2.40
2022-12-14T08:42:26.349Z,-2.40
2022-12-14T08:44:54.952Z,-2.40
2022-12-14T08:47:37.232Z,-2.30
2022-12-14T08:50:39.450Z,-2.30
2022-12-14T08:53:11.487Z,-2.30
2022-12-14T08:55:57.941Z,-2.30
2022-12-14T08:58:31.267Z,-2.20
2022-12-14T09:04:16.902Z,-2.20
2022-12-14T09:07:43.759Z,-2.20
2022-12-14T09:10:17.251Z,-2.20
2022-12-14T09:19:29.634Z,-2.10
2022-12-14T09:22:01.292Z,-2.10
2022-12-14T09:24:58.256Z,-2.10
2022-12-14T09:27:40.583Z,-2.10
2022-12-14T09:30:17.651Z,-2.10
2022-12-14T09:33:09.982Z,-2.10
2022-12-14T09:36:10.866Z,-2.10
2022-12-14T09:46:26.299Z,-2.00
2022-12-14T09:56:49.790Z,-1.90
2022-12-14T10:03:37.974Z,-2.00
2022-12-14T10:06:58.610Z,-1.90
2022-12-14T10:21:12.746Z,-1.70
2022-12-14T10:24:34.224Z,-1.60
2022-12-14T10:28:01.219Z,-1.60
2022-12-14T10:34:46.822Z,-1.60
2022-12-14T10:41:29.650Z,-1.60
2022-12-14T10:48:34.488Z,-1.40
2022-12-14T11:01:53.535Z,-1.20
2022-12-14T11:07:23.470Z,-1.10
2022-12-14T11:09:50.338Z,-1.20
2022-12-14T11:12:28.526Z,-1.20
2022-12-14T11:15:04.459Z,-1.10
2022-12-14T11:17:34.855Z,-1.10
2022-12-14T11:20:04.741Z,-1.10
2022-12-14T11:22:50.306Z,-1.20
2022-12-14T11:25:31.956Z,-1.00
2022-12-14T11:28:01.880Z,-1.00
2022-12-14T11:30:29.500Z,-1.00
2022-12-14T11:32:56.505Z,-1.00
2022-12-14T11:35:23.736Z,-1.00
2022-12-14T11:37:50.959Z,-1.00
2022-12-14T11:40:25.106Z,-1.00
2022-12-14T11:42:58.655Z,-1.00
2022-12-14T11:45:25.336Z,-1.00
2022-12-14T11:48:14.696Z,-0.90
2022-12-14T11:50:42.463Z,-0.80
2022-12-14T11:53:15.330Z,-0.90
2022-12-14T11:55:58.754Z,-0.90
2022-12-14T11:58:30.839Z,-0.80
2022-12-14T12:01:15.194Z,-0.80
2022-12-14T12:03:47.285Z,-0.80
2022-12-14T12:06:20.975Z,-0.70
2022-12-14T12:08:53.636Z,-0.70
2022-12-14T12:11:23.620Z,-0.70
2022-12-14T12:13:59.636Z,-0.60
2022-12-14T12:16:28.517Z,-0.60
2022-12-14T12:18:57.986Z,-0.50
2022-12-14T12:21:40.695Z,-0.50
2022-12-14T12:24:28.691Z,-0.50
2022-12-14T12:27:13.260Z,-0.50
2022-12-14T12:29:45.565Z,-0.50
2022-12-14T12:32:23.656Z,-0.50
2022-12-14T12:35:11.488Z,-0.40
2022-12-14T12:37:57.014Z,-0.40
2022-12-14T12:40:31.449Z,-0.40
2022-12-14T12:43:13.485Z,-0.40
2022-12-14T12:45:48.282Z,-0.40
2022-12-14T12:48:30.287Z,-0.30
2022-12-14T12:51:02.256Z,-0.30
2022-12-14T12:53:35.747Z,-0.30
2022-12-14T12:56:10.679Z,-0.30
2022-12-14T12:58:39.219Z,-0.30
2022-12-14T13:01:28.116Z,-0.30
2022-12-14T13:03:58.620Z,-0.30
2022-12-14T13:06:30.638Z,-0.20
2022-12-14T13:09:00.416Z,-0.20
2022-12-14T13:11:38.165Z,-0.30
2022-12-14T13:14:32.301Z,-0.20
2022-12-14T13:17:03.292Z,-0.20
2022-12-14T13:19:52.513Z,-0.20
2022-12-14T13:22:31.916Z,-0.20
2022-12-14T13:25:11.169Z,-0.20
2022-12-14T13:27:49.667Z,-0.20
2022-12-14T13:30:28.246Z,-0.20
2022-12-14T13:32:58.125Z,-0.20
2022-12-14T13:35:44.407Z,-0.20
2022-12-14T13:38:20.071Z,-0.20
2022-12-14T13:41:07.903Z,-0.20
2022-12-14T13:43:48.515Z,-0.20
2022-12-14T13:46:22.577Z,-0.30
2022-12-14T13:48:53.288Z,-0.40
2022-12-14T13:51:39.072Z,-0.30
2022-12-14T13:54:16.967Z,-0.30
2022-12-14T13:56:44.040Z,-0.40
2022-12-14T13:59:38.011Z,-0.40
2022-12-14T14:02:06.514Z,-0.40
2022-12-14T14:04:35.749Z,-0.40
2022-12-14T14:07:24.364Z,-0.40
2022-12-14T14:10:04.759Z,-0.40
2022-12-14T14:12:37.901Z,-0.30
2022-12-14T14:15:34.316Z,-0.30
2022-12-14T14:18:25.943Z,-0.40
2022-12-14T14:21:13.860Z,-0.30
2022-12-14T14:24:12.714Z,-0.40
2022-12-14T14:26:57.388Z,-0.40
2022-12-14T14:29:31.777Z,-0.30
2022-12-14T14:32:04.424Z,-0.30
2022-12-14T14:34:34.179Z,-0.30
2022-12-14T14:37:12.798Z,-0.40
2022-12-14T14:39:56.933Z,-0.30
2022-12-14T14:42:29.378Z,-0.40
2022-12-14T14:44:59.926Z,-0.40
2022-12-14T14:47:40.120Z,-0.40
2022-12-14T14:50:15.609Z,-0.40
2022-12-14T14:52:42.239Z,-0.40
2022-12-14T14:55:53.220Z,-0.40
2022-12-14T14:58:36.122Z,-0.40
2022-12-14T15:01:08.832Z,-0.40
2022-12-14T15:04:06.281Z,-0.50
2022-12-14T15:06:40.208Z,-0.50
2022-12-14T15:09:09.620Z,-0.50
2022-12-14T15:11:48.840Z,-0.60
2022-12-14T15:14:21.692Z,-0.60
2022-12-14T15:16:48.713Z,-0.60
2022-12-14T15:19:22.532Z,-0.60
2022-12-14T15:22:03.461Z,-0.60
2022-12-14T15:24:37.273Z,-0.70
2022-12-14T15:27:27.558Z,-0.70
2022-12-14T15:30:17.221Z,-0.70
2022-12-14T15:33:01.094Z,-0.70
2022-12-14T15:35:31.974Z,-0.70
2022-12-14T15:38:05.015Z,-0.70
2022-12-14T15:40:32.714Z,-0.70
2022-12-14T15:43:02.130Z,-0.70
2022-12-14T15:45:31.992Z,-0.80
2022-12-14T15:48:24.647Z,-0.80
2022-12-14T15:50:56.182Z,-0.70
2022-12-14T15:53:36.663Z,-0.70
2022-12-14T15:56:18.170Z,-0.70
2022-12-14T15:58:45.305Z,-0.70
2022-12-14T16:01:14.201Z,-0.80
2022-12-14T16:03:45.050Z,-0.80
2022-12-14T16:06:13.431Z,-0.70
2022-12-14T16:08:50.501Z,-0.70
2022-12-14T16:11:25.125Z,-0.80
2022-12-14T16:13:52.194Z,-0.80
2022-12-14T16:16:19.573Z,-0.70
2022-12-14T16:18:50.930Z,-0.80
2022-12-14T16:21:46.621Z,-0.70
2022-12-14T16:24:26.098Z,-0.80
2022-12-14T16:26:59.055Z,-0.80
2022-12-14T16:29:28.889Z,-0.80
2022-12-14T16:32:12.907Z,-0.80
2022-12-14T16:34:45.494Z,-0.80
2022-12-14T16:37:32.590Z,-0.80
2022-12-14T16:40:00.050Z,-0.90
2022-12-14T16:42:27.294Z,-0.90
2022-12-14T16:44:54.933Z,-0.90
2022-12-14T16:47:26.814Z,-0.90
2022-12-14T16:49:55.735Z,-0.90
2022-12-14T16:52:30.595Z,-0.90
2022-12-14T16:55:13.162Z,-0.90
2022-12-14T16:57:47.548Z,-0.90
2022-12-14T17:00:26.677Z,-0.90
2022-12-14T17:03:00.787Z,-0.80
2022-12-14T17:05:33.829Z,-0.90
2022-12-14T17:08:00.497Z,-0.90
2022-12-14T17:10:28.225Z,-0.90
2022-12-14T17:12:59.589Z,-0.90
2022-12-14T17:15:29.294Z,-0.90
2022-12-14T17:17:57.666Z,-0.90
2022-12-14T17:20:27.700Z,-0.90
2022-12-14T17:22:58.599Z,-0.90
2022-12-14T17:25:27.477Z,-0.90
2022-12-14T17:27:54.441Z,-0.90
2022-12-14T17:30:23.829Z,-0.90
2022-12-14T17:32:52.889Z,-0.90
2022-12-14T17:35:29.787Z,-0.90
2022-12-14T17:37:57.046Z,-0.90
2022-12-14T17:40:24.932Z,-0.90
2022-12-14T17:42:53.856Z,-0.90
2022-12-14T17:45:30.497Z,-0.90
2022-12-14T17:47:58.172Z,-0.90
2022-12-14T17:50:25.487Z,-0.90
2022-12-14T17:52:52.615Z,-0.90
2022-12-14T17:55:22.353Z,-1.00
2022-12-14T17:57:50.452Z,-1.00
2022-12-14T18:00:40.155Z,-1.00
2022-12-14T18:03:07.539Z,-1.00
2022-12-14T18:05:34.518Z,-1.00
2022-12-14T18:08:01.415Z,-0.90
2022-12-14T18:10:28.968Z,-1.00
2022-12-14T18:12:56.047Z,-1.00
2022-12-14T18:15:27.796Z,-1.00
2022-12-14T18:17:54.963Z,-0.90
2022-12-14T18:20:23.493Z,-1.00
2022-12-14T18:22:51.449Z,-1.00
2022-12-14T18:25:33.385Z,-1.00
2022-12-14T18:28:02.202Z,-1.00
2022-12-14T18:30:34.918Z,-1.00
2022-12-14T18:33:03.699Z,-1.00
2022-12-14T18:35:33.338Z,-1.00
2022-12-14T18:38:00.216Z,-1.00
2022-12-14T18:40:29.674Z,-1.00
2022-12-14T18:42:56.952Z,-1.10
2022-12-14T18:45:33.639Z,-1.10
2022-12-14T18:48:01.597Z,-1.10
2022-12-14T18:50:29.568Z,-1.10
2022-12-14T18:52:56.630Z,-1.10
2022-12-14T18:55:25.084Z,-1.20
2022-12-14T18:57:53.576Z,-1.20
2022-12-14T19:00:22.974Z,-1.20
2022-12-14T19:02:50.392Z,-1.20
2022-12-14T19:05:24.289Z,-1.20
2022-12-14T19:07:52.708Z,-1.30
2022-12-14T19:10:22.514Z,-1.30
2022-12-14T19:12:50.368Z,-1.30
2022-12-14T19:15:29.423Z,-1.30
2022-12-14T19:17:56.976Z,-1.30
2022-12-14T19:20:25.321Z,-1.30
2022-12-14T19:22:52.314Z,-1.30
2022-12-14T19:25:21.139Z,-1.30
2022-12-14T19:30:36.291Z,-1.30
2022-12-14T19:33:03.388Z,-1.30
2022-12-14T19:35:31.753Z,-1.30
2022-12-14T19:37:58.422Z,-1.30
2022-12-14T19:40:26.184Z,-1.40
2022-12-14T19:42:53.143Z,-1.40
2022-12-14T19:45:20.042Z,-1.40
2022-12-14T19:47:46.823Z,-1.40
2022-12-14T19:50:14.963Z,-1.50
2022-12-14T19:52:42.635Z,-1.40
2022-12-14T19:55:10.224Z,-1.40
2022-12-14T19:57:39.098Z,-1.40
2022-12-14T20:00:07.895Z,-1.40
2022-12-14T20:02:34.830Z,-1.40
2022-12-14T20:05:01.777Z,-1.40
2022-12-14T20:07:28.555Z,-1.40
2022-12-14T20:09:55.290Z,-1.40
2022-12-14T20:12:22.004Z,-1.30
2022-12-14T20:14:49.480Z,-1.40
2022-12-14T20:17:16.585Z,-1.40
2022-12-14T20:19:43.561Z,-1.40
2022-12-14T20:22:10.303Z,-1.30
2022-12-14T20:24:38.248Z,-1.40
2022-12-14T20:27:04.998Z,-1.40
2022-12-14T20:29:31.962Z,-1.40
2022-12-14T20:31:58.702Z,-1.40
2022-12-14T20:34:25.539Z,-1.40
2022-12-14T20:36:52.236Z,-1.40
2022-12-14T20:39:18.926Z,-1.40
2022-12-14T20:41:46.045Z,-1.40
2022-12-14T20:44:13.686Z,-1.40
2022-12-14T20:46:43.232Z,-1.50
2022-12-14T20:49:19.101Z,-1.50
2022-12-14T20:51:47.144Z,-1.50
2022-12-14T20:54:16.999Z,-1.50
2022-12-14T20:56:43.848Z,-1.50
2022-12-14T20:59:11.356Z,-1.60
2022-12-14T21:01:40.346Z,-1.60
2022-12-14T21:04:07.755Z,-1.60
2022-12-14T21:06:38.516Z,-1.60
2022-12-14T21:09:06.203Z,-1.70
2022-12-14T21:11:53.718Z,-1.70
2022-12-14T21:14:21.650Z,-1.70
2022-12-14T21:16:48.782Z,-1.70
2022-12-14T21:19:16.768Z,-1.70
2022-12-14T21:21:46.840Z,-1.80
2022-12-14T21:24:37.614Z,-1.70
2022-12-14T21:27:05.933Z,-1.80
2022-12-14T21:29:32.695Z,-1.80
2022-12-14T21:32:00.372Z,-1.80
2022-12-14T21:34:28.175Z,-1.80
2022-12-14T21:36:54.951Z,-1.80
2022-12-14T21:39:21.733Z,-1.80
2022-12-14T21:42:07.345Z,-1.70
2022-12-14T21:44:37.517Z,-1.80
2022-12-14T21:47:05.811Z,-1.80
2022-12-14T21:49:32.825Z,-1.80
2022-12-14T21:51:59.630Z,-1.80
2022-12-14T21:54:26.592Z,-1.80
2022-12-14T21:57:11.979Z,-1.70
2022-12-14T21:59:41.022Z,-1.70
2022-12-14T22:02:19.949Z,-1.80
2022-12-14T22:04:47.346Z,-1.80
2022-12-14T22:07:18.706Z,-1.80
2022-12-14T22:09:49.656Z,-1.70
2022-12-14T22:12:18.226Z,-1.80
2022-12-14T22:14:45.001Z,-1.80
2022-12-14T22:17:13.495Z,-1.70
2022-12-14T22:19:40.203Z,-1.80
2022-12-14T22:22:07.075Z,-1.70
2022-12-14T22:24:33.927Z,-1.80
2022-12-14T22:27:00.820Z,-1.80
2022-12-14T22:29:27.567Z,-1.90
2022-12-14T22:31:54.628Z,-1.90
2022-12-14T22:34:23.270Z,-1.90
2022-12-14T22:36:51.334Z,-1.90
2022-12-14T22:39:19.200Z,-1.90
2022-12-14T22:41:46.888Z,-1.90
2022-12-14T22:44:13.794Z,-1.90
2022-12-14T22:46:41.020Z,-1.90
2022-12-14T22:49:08.783Z,-1.90
2022-12-14T22:51:35.949Z,-1.80
2022-12-14T22:54:03.530Z,-1.80
2022-12-14T22:56:32.980Z,-1.80
2022-12-14T22:59:09.035Z,-1.80
2022-12-14T23:01:37.171Z,-1.80
2022-12-14T23:04:05.658Z,-1.80
2022-12-14T23:06:33.540Z,-1.80
2022-12-14T23:09:19.426Z,-1.80
2022-12-14T23:12:07.633Z,-1.80
2022-12-14T23:14:56.542Z,-1.90
2022-12-14T23:17:41.948Z,-1.90
2022-12-14T23:20:27.855Z,-1.90
2022-12-14T23:23:13.118Z,-1.90
2022-12-14T23:25:58.421Z,-1.80
2022-12-14T23:28:44.010Z,-1.90
2022-12-14T23:31:35.311Z,-1.90
2022-12-14T23:34:20.689Z,-1.80
2022-12-14T23:37:06.200Z,-1.80
2022-12-14T23:39:52.992Z,-1.80
2022-12-14T23:42:38.349Z,-1.90
2022-12-14T23:45:24.736Z,-1.80
2022-12-14T23:48:10.125Z,-1.90
2022-12-14T23:50:55.377Z,-1.90
2022-12-14T23:53:40.701Z,-1.90
2022-12-14T23:56:26.173Z,-1.90
2022-12-14T23:59:13.895Z,-1.90
